createdAt,value
2016-12-08T00:01:22.452Z,100.000
2016-12-08T00:04:17.210Z,100.000
2016-12-08T00:07:12.271Z,100.000
2016-12-08T00:10:07.318Z,100.000
2016-12-08T00:13:02.419Z,100.000
2016-12-08T00:15:57.460Z,100.000
2016-12-08T00:18:52.519Z,100.000
2016-12-08T00:21:47.532Z,100.000
2016-12-08T00:24:42.571Z,100.000
2016-12-08T00:27:37.578Z,100.000
2016-12-08T00:30:32.705Z,100.000
2016-12-08T00:33:27.742Z,100.000
2016-12-08T00:36:22.836Z,100.000
2016-12-08T00:39:17.765Z,100.000
2016-12-08T00:42:12.779Z,100.000
2016-12-08T00:45:07.758Z,100.000
2016-12-08T00:48:02.776Z,100.000
2016-12-08T00:50:57.771Z,100.000
2016-12-08T00:53:52.815Z,100.000
2016-12-08T00:56:47.794Z,100.000
2016-12-08T00:59:42.860Z,100.000
2016-12-08T01:02:37.905Z,100.000
2016-12-08T01:05:32.960Z,100.000
2016-12-08T01:08:27.942Z,100.000
2016-12-08T01:11:23.042Z,100.000
2016-12-08T01:14:18.119Z,100.000
2016-12-08T01:17:13.144Z,100.000
2016-12-08T01:20:08.149Z,100.000
2016-12-08T01:23:03.140Z,100.000
2016-12-08T01:25:58.116Z,100.000
2016-12-08T01:28:53.243Z,100.000
2016-12-08T01:31:48.109Z,100.000
2016-12-08T01:34:43.231Z,100.000
2016-12-08T01:37:38.359Z,100.000
2016-12-08T01:40:33.397Z,100.000
2016-12-08T01:43:28.406Z,100.000
2016-12-08T01:46:23.437Z,100.000
2016-12-08T01:49:18.396Z,100.000
2016-12-08T01:52:13.423Z,100.000
2016-12-08T01:55:08.426Z,100.000
2016-12-08T01:58:03.488Z,100.000
2016-12-08T02:00:58.486Z,100.000
2016-12-08T02:03:53.625Z,100.000
2016-12-08T02:06:48.636Z,100.000
2016-12-08T02:09:43.730Z,100.000
2016-12-08T02:12:38.823Z,99.905
2016-12-08T02:15:33.982Z,100.000
2016-12-08T02:18:29.071Z,99.546
2016-12-08T02:21:24.246Z,99.425
2016-12-08T02:24:19.245Z,99.389
2016-12-08T02:27:14.330Z,99.470
2016-12-08T02:30:09.380Z,99.269
2016-12-08T02:33:04.528Z,99.431
2016-12-08T02:35:59.591Z,98.803
2016-12-08T02:38:54.668Z,98.809
2016-12-08T02:41:49.730Z,98.750
2016-12-08T02:44:44.891Z,98.545
2016-12-08T02:47:39.993Z,98.920
2016-12-08T02:50:35.072Z,98.460
2016-12-08T02:53:30.201Z,97.837
2016-12-08T02:56:25.265Z,98.001
2016-12-08T02:59:20.260Z,97.805
2016-12-08T03:02:15.454Z,97.346
2016-12-08T03:05:10.527Z,97.148
2016-12-08T03:08:05.611Z,97.158
2016-12-08T03:11:00.715Z,97.372
2016-12-08T03:13:55.767Z,97.404
2016-12-08T03:16:50.883Z,97.240
2016-12-08T03:19:45.990Z,97.169
2016-12-08T03:22:41.030Z,97.591
2016-12-08T03:25:36.126Z,97.216
2016-12-08T03:28:31.229Z,97.119
2016-12-08T03:31:26.291Z,97.150
2016-12-08T03:34:21.311Z,97.041
2016-12-08T03:37:16.505Z,97.488
2016-12-08T03:40:11.516Z,97.266
2016-12-08T03:43:06.610Z,97.179
2016-12-08T03:46:01.649Z,96.765
2016-12-08T03:48:56.685Z,96.762
2016-12-08T03:51:51.826Z,96.264
2016-12-08T03:54:46.972Z,95.936
2016-12-08T03:57:41.970Z,96.000
2016-12-08T04:00:37.136Z,95.679
2016-12-08T04:03:32.253Z,95.412
2016-12-08T04:06:27.362Z,95.380
2016-12-08T04:09:22.404Z,95.179
2016-12-08T04:12:17.559Z,95.462
2016-12-08T04:15:12.634Z,95.339
2016-12-08T04:18:07.737Z,95.041
2016-12-08T04:21:02.777Z,95.295
2016-12-08T04:23:57.849Z,95.109
2016-12-08T04:26:52.827Z,94.632
2016-12-08T04:29:47.958Z,94.965
2016-12-08T04:32:43.014Z,94.870
2016-12-08T04:35:38.204Z,94.947
2016-12-08T04:38:33.298Z,94.522
2016-12-08T04:41:28.385Z,94.762
2016-12-08T04:44:23.448Z,94.744
2016-12-08T04:47:18.541Z,95.112
2016-12-08T04:50:13.536Z,94.992
2016-12-08T04:53:08.679Z,94.517
2016-12-08T04:56:03.690Z,94.439
2016-12-08T04:58:58.780Z,94.111
2016-12-08T05:01:53.855Z,94.218
2016-12-08T05:04:48.941Z,93.739
2016-12-08T05:07:44.032Z,93.800
2016-12-08T05:10:39.100Z,93.663
2016-12-08T05:13:34.140Z,93.591
2016-12-08T05:16:29.156Z,93.834
2016-12-08T05:19:24.172Z,93.329
2016-12-08T05:22:19.284Z,93.417
2016-12-08T05:25:14.467Z,93.256
2016-12-08T05:28:09.587Z,93.351
2016-12-08T05:31:04.650Z,93.733
2016-12-08T05:33:59.737Z,94.041
2016-12-08T05:36:54.845Z,93.808
2016-12-08T05:39:49.997Z,94.564
2016-12-08T05:42:45.070Z,93.787
2016-12-08T05:45:40.176Z,94.074
2016-12-08T05:48:35.176Z,94.348
2016-12-08T05:51:30.323Z,94.243
2016-12-08T05:54:25.378Z,93.861
2016-12-08T05:57:20.585Z,93.765
2016-12-08T06:00:15.751Z,93.541
2016-12-08T06:03:10.759Z,93.383
2016-12-08T06:06:05.780Z,93.443
2016-12-08T06:09:00.906Z,93.882
2016-12-08T06:11:55.847Z,94.524
2016-12-08T06:14:50.872Z,94.073
2016-12-08T06:17:45.887Z,93.883
2016-12-08T06:20:40.970Z,93.901
2016-12-08T06:23:35.962Z,94.052
2016-12-08T06:26:31.089Z,93.922
2016-12-08T06:29:26.143Z,94.054
2016-12-08T06:32:21.341Z,94.509
2016-12-08T06:35:16.414Z,94.310
2016-12-08T06:38:11.497Z,94.655
2016-12-08T06:41:06.536Z,94.154
2016-12-08T06:44:01.652Z,94.108
2016-12-08T06:46:56.708Z,94.051
2016-12-08T06:49:51.771Z,94.307
2016-12-08T06:52:46.895Z,94.021
2016-12-08T06:55:41.986Z,94.260
2016-12-08T06:58:37.000Z,94.328
2016-12-08T07:01:32.220Z,93.882
2016-12-08T07:04:27.228Z,94.200
2016-12-08T07:07:22.393Z,94.034
2016-12-08T07:10:17.537Z,94.000
2016-12-08T07:13:12.649Z,94.357
2016-12-08T07:16:07.721Z,93.892
2016-12-08T07:19:02.793Z,93.585
2016-12-08T07:21:57.947Z,93.230
2016-12-08T07:24:53.048Z,93.126
2016-12-08T07:27:48.098Z,92.386
2016-12-08T07:30:43.205Z,92.398
2016-12-08T07:33:38.290Z,92.079
2016-12-08T07:36:33.428Z,91.643
2016-12-08T07:39:28.554Z,91.497
2016-12-08T07:42:23.733Z,91.570
2016-12-08T07:45:18.937Z,90.759
2016-12-08T07:48:14.043Z,90.705
2016-12-08T07:51:09.141Z,89.894
2016-12-08T07:54:04.383Z,89.401
2016-12-08T07:56:59.474Z,88.503
2016-12-08T07:59:54.756Z,87.762
2016-12-08T08:02:49.907Z,86.922
2016-12-08T08:05:45.152Z,85.439
2016-12-08T08:08:40.287Z,84.377
2016-12-08T08:11:35.635Z,80.214
2016-12-08T08:14:30.952Z,76.911
2016-12-08T08:17:26.418Z,74.405
2016-12-08T08:20:21.911Z,73.163
2016-12-08T08:23:17.415Z,72.700
2016-12-08T08:26:12.968Z,72.050
2016-12-08T08:29:08.566Z,70.358
2016-12-08T08:32:04.072Z,68.375
2016-12-08T08:34:59.828Z,65.513
2016-12-08T08:37:55.563Z,64.277
2016-12-08T08:40:51.337Z,62.692
2016-12-08T08:43:47.128Z,61.583
2016-12-08T08:46:42.965Z,59.950
2016-12-08T08:49:38.766Z,58.619
2016-12-08T08:52:34.427Z,59.199
2016-12-08T08:55:29.906Z,60.636
2016-12-08T08:58:25.563Z,59.890
2016-12-08T09:01:20.994Z,61.861
2016-12-08T09:04:16.477Z,63.569
2016-12-08T09:07:11.860Z,63.282
2016-12-08T09:10:07.269Z,64.584
2016-12-08T09:13:02.684Z,65.121
2016-12-08T09:15:58.022Z,65.668
2016-12-08T09:18:53.411Z,67.287
2016-12-08T09:21:48.855Z,66.607
2016-12-08T09:24:44.232Z,66.928
2016-12-08T09:27:39.680Z,67.861
2016-12-08T09:30:35.032Z,66.460
2016-12-08T09:33:30.452Z,66.171
2016-12-08T09:36:25.890Z,64.979
2016-12-08T09:39:21.509Z,63.458
2016-12-08T09:42:17.021Z,63.374
2016-12-08T09:45:12.635Z,64.116
2016-12-08T09:48:08.152Z,62.663
2016-12-08T09:51:03.709Z,62.708
2016-12-08T09:53:59.153Z,63.239
2016-12-08T09:56:54.613Z,63.884
2016-12-08T09:59:50.001Z,63.375
2016-12-08T10:02:45.395Z,64.487
2016-12-08T10:05:40.727Z,64.097
2016-12-08T10:08:36.129Z,64.647
2016-12-08T10:11:31.454Z,64.772
2016-12-08T10:14:26.933Z,64.764
2016-12-08T10:17:22.243Z,64.946
2016-12-08T10:20:17.544Z,65.009
2016-12-08T10:23:12.844Z,65.625
2016-12-08T10:26:08.243Z,66.075
2016-12-08T10:29:03.617Z,67.744
2016-12-08T10:31:59.033Z,66.536
2016-12-08T10:34:54.381Z,66.298
2016-12-08T10:37:49.758Z,67.532
2016-12-08T10:40:45.101Z,65.418
2016-12-08T10:43:40.534Z,65.958
2016-12-08T10:46:35.928Z,66.341
2016-12-08T10:49:31.285Z,66.162
2016-12-08T10:52:26.605Z,65.979
2016-12-08T10:55:21.962Z,65.527
2016-12-08T10:58:17.282Z,65.944
2016-12-08T11:01:12.690Z,66.340
2016-12-08T11:04:08.080Z,66.432
2016-12-08T11:07:03.540Z,67.061
2016-12-08T11:09:58.875Z,67.683
2016-12-08T11:12:54.308Z,67.356
2016-12-08T11:15:49.646Z,67.448
2016-12-08T11:18:45.070Z,67.407
2016-12-08T11:21:40.452Z,67.684
2016-12-08T11:24:35.885Z,67.613
2016-12-08T11:27:31.277Z,67.847
2016-12-08T11:30:26.699Z,67.795
2016-12-08T11:33:22.073Z,68.278
2016-12-08T11:36:17.589Z,67.975
2016-12-08T11:39:12.948Z,68.099
2016-12-08T11:42:08.363Z,68.005
2016-12-08T11:45:03.708Z,67.457
2016-12-08T11:47:59.225Z,68.028
2016-12-08T11:50:54.614Z,68.206
2016-12-08T11:53:49.903Z,68.715
2016-12-08T11:56:45.278Z,68.653
2016-12-08T11:59:40.744Z,68.696
2016-12-08T12:02:36.120Z,68.545
2016-12-08T12:05:31.653Z,68.190
2016-12-08T12:08:26.960Z,67.949
2016-12-08T12:11:22.446Z,68.276
2016-12-08T12:14:17.785Z,67.982
2016-12-08T12:17:13.232Z,67.554
2016-12-08T12:20:08.634Z,67.538
2016-12-08T12:23:04.054Z,67.601
2016-12-08T12:25:59.430Z,67.739
2016-12-08T12:28:54.881Z,67.965
2016-12-08T12:31:50.210Z,68.237
2016-12-08T12:34:45.612Z,68.251
2016-12-08T12:37:40.923Z,69.013
2016-12-08T12:40:36.301Z,68.217
2016-12-08T12:43:31.699Z,68.552
2016-12-08T12:46:27.097Z,68.064
2016-12-08T12:49:22.441Z,68.415
2016-12-08T12:52:17.872Z,68.083
2016-12-08T12:55:13.237Z,67.889
2016-12-08T12:58:08.662Z,67.092
2016-12-08T13:01:04.205Z,67.416
2016-12-08T13:03:59.682Z,66.712
2016-12-08T13:06:55.060Z,66.717
2016-12-08T13:09:50.570Z,67.349
2016-12-08T13:12:45.995Z,66.977
2016-12-08T13:15:41.454Z,66.237
2016-12-08T13:18:36.846Z,66.001
2016-12-08T13:21:32.318Z,66.471
2016-12-08T13:24:27.720Z,66.227
2016-12-08T13:27:23.282Z,66.898
2016-12-08T13:30:18.667Z,66.423
2016-12-08T13:33:14.128Z,67.091
2016-12-08T13:36:09.418Z,66.814
2016-12-08T13:39:04.773Z,67.726
2016-12-08T13:42:00.192Z,67.982
2016-12-08T13:44:55.594Z,67.942
2016-12-08T13:47:50.910Z,68.190
2016-12-08T13:50:46.349Z,68.598
2016-12-08T13:53:41.664Z,68.625
2016-12-08T13:56:37.110Z,68.998
2016-12-08T13:59:32.481Z,69.104
2016-12-08T14:02:27.894Z,69.526
2016-12-08T14:05:23.192Z,69.406
2016-12-08T14:08:18.588Z,69.446
2016-12-08T14:11:13.848Z,69.679
2016-12-08T14:14:09.220Z,69.702
2016-12-08T14:17:04.529Z,70.550
2016-12-08T14:19:59.883Z,69.823
2016-12-08T14:22:55.317Z,70.491
2016-12-08T14:25:50.751Z,70.435
2016-12-08T14:28:45.989Z,70.673
2016-12-08T14:31:41.299Z,70.158
2016-12-08T14:34:36.626Z,70.606
2016-12-08T14:37:32.350Z,70.589
2016-12-08T14:40:27.381Z,71.028
2016-12-08T14:43:22.729Z,70.877
2016-12-08T14:46:18.017Z,70.846
2016-12-08T14:49:13.325Z,71.156
2016-12-08T14:52:08.663Z,71.201
2016-12-08T14:55:04.089Z,71.413
2016-12-08T14:57:59.415Z,71.855
2016-12-08T15:00:54.821Z,72.274
2016-12-08T15:03:50.138Z,71.521
2016-12-08T15:06:45.544Z,72.037
2016-12-08T15:09:40.836Z,72.095
2016-12-08T15:12:36.084Z,72.153
2016-12-08T15:15:31.341Z,72.458
2016-12-08T15:18:26.740Z,72.426
2016-12-08T15:21:22.031Z,72.442
2016-12-08T15:24:17.329Z,72.411
2016-12-08T15:27:12.626Z,72.290
2016-12-08T15:30:07.986Z,72.202
2016-12-08T15:33:03.364Z,72.969
2016-12-08T15:35:58.719Z,72.070
2016-12-08T15:38:54.099Z,71.835
2016-12-08T15:41:49.525Z,72.046
2016-12-08T15:44:44.858Z,71.736
2016-12-08T15:47:40.208Z,72.045
2016-12-08T15:50:35.531Z,72.081
2016-12-08T15:53:30.871Z,71.859
2016-12-08T15:56:26.111Z,71.714
2016-12-08T15:59:21.539Z,71.641
2016-12-08T16:02:16.807Z,72.200
2016-12-08T16:05:12.144Z,71.708
2016-12-08T16:08:07.509Z,71.633
2016-12-08T16:11:02.814Z,71.558
2016-12-08T16:13:58.095Z,71.910
2016-12-08T16:16:53.471Z,71.826
2016-12-08T16:19:48.806Z,71.944
2016-12-08T16:22:44.191Z,71.427
2016-12-08T16:25:39.522Z,71.193
2016-12-08T16:28:34.893Z,71.059
2016-12-08T16:31:30.209Z,70.626
2016-12-08T16:34:25.556Z,70.665
2016-12-08T16:37:20.843Z,70.336
2016-12-08T16:40:16.230Z,70.515
2016-12-08T16:43:11.579Z,69.853
2016-12-08T16:46:06.992Z,69.641
2016-12-08T16:49:02.404Z,69.704
2016-12-08T16:51:57.827Z,69.521
2016-12-08T16:54:53.175Z,69.784
2016-12-08T16:57:48.568Z,69.392
2016-12-08T17:00:43.914Z,69.390
2016-12-08T17:03:39.285Z,69.611
2016-12-08T17:06:34.720Z,69.288
2016-12-08T17:09:30.147Z,69.349
2016-12-08T17:12:25.483Z,69.291
2016-12-08T17:15:20.807Z,69.750
2016-12-08T17:18:16.129Z,69.099
2016-12-08T17:21:11.518Z,69.247
2016-12-08T17:24:06.874Z,69.800
2016-12-08T17:27:02.248Z,69.437
2016-12-08T17:29:57.570Z,69.670
2016-12-08T17:32:52.966Z,69.378
2016-12-08T17:35:48.291Z,69.369
2016-12-08T17:38:43.655Z,70.179
2016-12-08T17:41:38.960Z,69.772
2016-12-08T17:44:34.375Z,68.900
2016-12-08T17:47:29.727Z,68.524
2016-12-08T17:50:25.142Z,69.243
2016-12-08T17:53:20.506Z,69.666
2016-12-08T17:56:15.811Z,69.030
2016-12-08T17:59:11.168Z,68.687
2016-12-08T18:02:06.525Z,68.996
2016-12-08T18:05:01.843Z,69.123
2016-12-08T18:07:57.137Z,69.163
2016-12-08T18:10:52.432Z,68.842
2016-12-08T18:13:47.792Z,68.855
2016-12-08T18:16:43.158Z,68.970
2016-12-08T18:19:38.518Z,69.094
2016-12-08T18:22:33.829Z,68.957
2016-12-08T18:25:29.139Z,69.113
2016-12-08T18:28:24.524Z,69.649
2016-12-08T18:31:19.908Z,70.028
2016-12-08T18:34:15.104Z,69.118
2016-12-08T18:37:10.454Z,69.994
2016-12-08T18:40:05.714Z,69.878
2016-12-08T18:43:00.988Z,69.157
2016-12-08T18:45:56.338Z,69.364
2016-12-08T18:48:51.575Z,69.326
2016-12-08T18:51:46.896Z,69.678
2016-12-08T18:54:42.197Z,69.430
2016-12-08T18:57:37.515Z,69.334
2016-12-08T19:00:32.870Z,69.959
2016-12-08T19:03:28.098Z,69.541
2016-12-08T19:06:23.404Z,69.676
2016-12-08T19:09:18.622Z,70.041
2016-12-08T19:12:13.902Z,70.279
2016-12-08T19:15:09.216Z,70.224
2016-12-08T19:18:04.557Z,69.965
2016-12-08T19:20:59.840Z,70.125
2016-12-08T19:23:55.324Z,69.739
2016-12-08T19:26:50.687Z,69.850
2016-12-08T19:29:46.007Z,70.762
2016-12-08T19:32:41.324Z,70.625
2016-12-08T19:35:36.653Z,70.933
2016-12-08T19:38:31.960Z,70.608
2016-12-08T19:41:27.285Z,70.858
2016-12-08T19:44:22.526Z,71.433
2016-12-08T19:47:17.793Z,71.342
2016-12-08T19:50:13.122Z,71.141
2016-12-08T19:53:08.418Z,71.445
2016-12-08T19:56:03.660Z,71.134
2016-12-08T19:58:58.957Z,70.965
2016-12-08T20:01:54.240Z,71.028
2016-12-08T20:04:49.556Z,70.800
2016-12-08T20:07:44.910Z,71.080
2016-12-08T20:10:40.211Z,70.689
2016-12-08T20:13:35.506Z,70.832
2016-12-08T20:16:30.771Z,70.783
2016-12-08T20:19:26.058Z,70.295
2016-12-08T20:22:21.458Z,71.049
2016-12-08T20:25:16.727Z,70.249
2016-12-08T20:28:12.033Z,70.560
2016-12-08T20:31:07.281Z,70.020
2016-12-08T20:34:02.727Z,71.244
2016-12-08T20:36:57.930Z,72.431
2016-12-08T20:39:53.543Z,71.289
2016-12-08T20:42:48.605Z,71.560
2016-12-08T20:45:43.929Z,72.132
2016-12-08T20:48:39.271Z,71.486
2016-12-08T20:51:34.710Z,71.090
2016-12-08T20:54:29.982Z,71.677
2016-12-08T20:57:25.278Z,70.966
2016-12-08T21:00:20.495Z,70.642
2016-12-08T21:03:15.745Z,71.152
2016-12-08T21:06:10.964Z,70.632
2016-12-08T21:09:06.198Z,70.713
2016-12-08T21:12:01.463Z,70.750
2016-12-08T21:14:56.728Z,70.622
2016-12-08T21:17:51.874Z,73.063
2016-12-08T21:20:47.126Z,74.184
2016-12-08T21:23:42.384Z,70.853
2016-12-08T21:26:37.672Z,71.244
2016-12-08T21:29:32.922Z,71.312
2016-12-08T21:32:28.032Z,72.099
2016-12-08T21:35:23.225Z,71.731
2016-12-08T21:38:18.406Z,71.241
2016-12-08T21:41:13.630Z,71.848
2016-12-08T21:44:08.860Z,72.047
2016-12-08T21:47:03.984Z,72.242
2016-12-08T21:49:59.273Z,72.434
2016-12-08T21:52:54.514Z,72.310
2016-12-08T21:55:49.626Z,73.617
2016-12-08T21:58:44.939Z,72.809
2016-12-08T22:01:40.118Z,73.281
2016-12-08T22:04:35.360Z,73.333
2016-12-08T22:07:30.468Z,73.896
2016-12-08T22:10:25.685Z,73.432
